Time;durP1;ratioP1;P1;durP2;ratioP2;P2;SDS_P1;SDS_P2;PMS_P1;PMS_P2;Temp;Humidity;BMP_temperature;BMP_pressure;BME280_temperature;BME280_humidity;BME280_pressure;Samples;Min_cycle;Max_cycle;Signal;HPM_P1;HPM_P2
2022/02/09 00:03:26;;;;;;;3.45;1.10;;;17.60;64.50;;;;;;10389443;28;20033;-54
2022/02/09 00:08:27;;;;;;;1.70;0.65;;;17.60;64.40;;;;;;10412425;28;20432;-57
2022/02/09 00:39:27;;;;;;;1.10;0.60;;;17.60;64.20;;;;;;10454064;28;20037;-55
2022/02/09 01:58:10;;;;;;;1.80;0.67;;;17.60;64.20;;;;;;10420189;28;20045;-55
2022/02/09 02:03:11;;;;;;;1.73;0.57;;;17.60;64.30;;;;;;10434788;28;20045;-56
2022/02/09 02:08:13;;;;;;;0.85;0.47;;;17.60;64.30;;;;;;10419247;28;20100;-55
2022/02/09 02:18:36;;;;;;;0.77;0.32;;;17.60;64.30;;;;;;10418974;28;20069;-56
2022/02/09 02:24:08;;;;;;;1.88;0.70;;;17.60;64.30;;;;;;10433656;28;20436;-55
2022/02/09 02:29:40;;;;;;;1.30;0.40;;;17.60;64.30;;;;;;10414814;28;20073;-55
2022/02/09 03:16:58;;;;;;;1.92;0.60;;;17.60;66.70;;;;;;10416509;28;20073;-55
2022/02/09 03:30:49;;;;;;;1.10;0.32;;;17.60;66.90;;;;;;10429116;28;20038;-55
2022/02/09 03:48:49;;;;;;;1.27;0.60;;;17.60;66.90;;;;;;10415777;28;20119;-55
2022/02/09 03:54:01;;;;;;;0.75;0.43;;;17.50;66.70;;;;;;10427633;28;20381;-56
2022/02/09 03:59:02;;;;;;;1.55;0.60;;;17.60;66.70;;;;;;10413372;28;20515;-55
2022/02/09 04:04:03;;;;;;;1.50;0.45;;;17.50;66.70;;;;;;10414317;28;20111;-55
2022/02/09 04:09:10;;;;;;;1.02;0.52;;;17.50;66.60;;;;;;10414294;28;20040;-55
2022/02/09 04:14:51;;;;;;;0.77;0.40;;;17.50;66.60;;;;;;10412833;28;20075;-55
2022/02/09 04:51:05;;;;;;;0.93;0.50;;;17.60;66.20;;;;;;10412891;28;19921;-55
2022/02/09 05:28:01;;;;;;;1.27;0.40;;;17.60;65.80;;;;;;10409171;28;20112;-54
2022/02/09 05:33:02;;;;;;;2.08;0.93;;;17.60;65.80;;;;;;10410353;28;20083;-55
2022/02/09 05:38:03;;;;;;;0.47;0.30;;;17.60;65.70;;;;;;10412325;28;20454;-55
2022/02/09 05:43:04;;;;;;;0.50;0.40;;;17.60;65.80;;;;;;10427605;28;20030;-55
2022/02/09 05:53:11;;;;;;;1.92;0.68;;;17.60;65.70;;;;;;10410211;28;20046;-56
2022/02/09 05:58:22;;;;;;;2.45;1.45;;;17.60;65.90;;;;;;10411475;28;20028;-56
2022/02/09 06:03:23;;;;;;;3.75;1.08;;;17.60;66.10;;;;;;10412138;28;20034;-57
2022/02/09 06:08:25;;;;;;;9.38;1.40;;;17.70;66.40;;;;;;10418445;28;20447;-60
2022/02/09 06:13:28;;;;;;;7.03;1.52;;;17.80;67.30;;;;;;10418182;28;20482;-57
2022/02/09 06:23:48;;;;;;;8.90;1.80;;;17.90;67.40;;;;;;10418039;28;20029;-58
2022/02/09 06:28:49;;;;;;;5.68;1.85;;;17.90;68.00;;;;;;10433290;28;20056;-57
2022/02/09 06:33:51;;;;;;;8.05;1.67;;;17.90;67.30;;;;;;10432327;28;20530;-57
2022/02/09 06:38:51;;;;;;;8.68;1.90;;;17.90;67.80;;;;;;10416095;28;20437;-56
2022/02/09 06:43:53;;;;;;;11.77;2.45;;;17.80;67.60;;;;;;10415285;28;20034;-58
2022/02/09 06:48:54;;;;;;;12.00;2.20;;;17.70;67.80;;;;;;10416534;28;20068;-57
2022/02/09 06:54:08;;;;;;;8.68;1.92;;;17.70;67.80;;;;;;10415666;28;20083;-57
2022/02/09 06:59:28;;;;;;;9.05;2.08;;;17.60;67.80;;;;;;10413668;28;20025;-57
2022/02/09 07:04:28;;;;;;;16.85;2.53;;;17.50;67.80;;;;;;10415073;28;20068;-57
2022/02/09 07:09:29;;;;;;;9.15;2.17;;;17.50;68.60;;;;;;10414293;28;20095;-59
2022/02/09 07:14:30;;;;;;;19.40;2.50;;;17.50;67.90;;;;;;10414103;28;20463;-56
2022/02/09 07:19:32;;;;;;;12.38;2.58;;;17.50;67.80;;;;;;10406376;28;20394;-57
2022/02/09 07:24:33;;;;;;;11.63;2.17;;;17.40;67.70;;;;;;10412641;28;20029;-61
2022/02/09 07:29:34;;;;;;;11.20;2.33;;;17.40;67.90;;;;;;10413579;28;20132;-57
2022/02/09 07:34:35;;;;;;;15.80;2.88;;;17.40;68.00;;;;;;10410117;28;20037;-57
2022/02/09 07:39:37;;;;;;;8.88;1.95;;;17.30;68.00;;;;;;10426511;28;20098;-56
2022/02/09 07:45:45;;;;;;;10.07;1.83;;;17.30;68.00;;;;;;10407335;28;20045;-55
2022/02/09 07:50:37;;;;;;;10.63;2.15;;;17.30;68.00;;;;;;10413100;28;20046;-57
2022/02/09 07:55:39;;;;;;;6.65;2.38;;;17.30;67.60;;;;;;10422592;28;20056;-59
2022/02/09 08:00:40;;;;;;;5.40;1.92;;;17.40;67.40;;;;;;10399062;28;20052;-58
2022/02/09 08:05:41;;;;;;;9.15;1.90;;;17.40;67.00;;;;;;10413790;28;20103;-58
2022/02/09 08:10:55;;;;;;;7.38;1.92;;;17.50;67.10;;;;;;10411927;28;20033;-58
2022/02/09 08:27:18;;;;;;;11.13;2.15;;;17.60;66.80;;;;;;10428579;28;20529;-58
2022/02/09 08:36:44;;;;;;;7.63;1.77;;;17.70;67.30;;;;;;10453637;28;20079;-57
2022/02/09 08:41:45;;;;;;;6.53;2.00;;;17.80;67.70;;;;;;10452937;28;20025;-55
2022/02/09 08:46:47;;;;;;;8.23;2.22;;;17.90;68.60;;;;;;10401579;28;20029;-57
2022/02/09 08:51:48;;;;;;;7.95;2.60;;;17.80;68.00;;;;;;10404103;28;20028;-57
2022/02/09 08:56:49;;;;;;;10.88;1.60;;;17.80;68.20;;;;;;10415470;28;20417;-55
2022/02/09 09:01:55;;;;;;;14.05;2.55;;;17.70;67.90;;;;;;10394203;28;20037;-56
2022/02/09 09:06:59;;;;;;;9.13;2.40;;;17.70;68.50;;;;;;10412033;28;20759;-56
2022/02/09 10:37:11;;;;;;;3.78;1.38;;;17.70;66.90;;;;;;10417300;28;20041;-56
2022/02/09 10:42:32;;;;;;;4.28;1.30;;;17.60;66.90;;;;;;10415491;28;20458;-55
2022/02/09 10:47:34;;;;;;;3.63;1.50;;;17.50;67.00;;;;;;10416408;28;20056;-55
2022/02/09 10:52:46;;;;;;;4.93;1.30;;;17.50;67.10;;;;;;10415421;28;20033;-56
2022/02/09 10:57:47;;;;;;;2.17;1.17;;;17.60;67.10;;;;;;10416319;28;20029;-56
2022/02/09 11:02:49;;;;;;;3.47;1.35;;;17.50;67.00;;;;;;10415789;28;20033;-55
2022/02/09 11:07:52;;;;;;;3.30;1.23;;;17.50;66.90;;;;;;10416976;28;20029;-56
2022/02/09 11:12:53;;;;;;;2.83;1.65;;;17.60;66.90;;;;;;10415752;28;20018;-56
2022/02/09 11:17:55;;;;;;;3.63;1.13;;;17.60;66.80;;;;;;10416826;28;20126;-56
2022/02/09 11:22:56;;;;;;;2.53;1.30;;;17.60;66.80;;;;;;10373766;28;20033;-56
2022/02/09 11:28:41;;;;;;;3.80;1.70;;;17.60;66.80;;;;;;10390715;28;20025;-56
2022/02/09 11:34:03;;;;;;;2.83;1.27;;;17.60;67.40;;;;;;10327498;28;20046;-56
2022/02/09 11:44:53;;;;;;;2.35;1.08;;;17.50;66.80;;;;;;10414857;28;20035;-56
2022/02/09 12:11:39;;;;;;;2.63;0.90;;;17.60;66.20;;;;;;10423949;28;20037;-55
2022/02/09 12:17:13;;;;;;;2.40;1.35;;;17.60;66.20;;;;;;10414389;28;20022;-55
2022/02/09 12:22:26;;;;;;;2.30;1.13;;;17.50;66.20;;;;;;10425845;28;20033;-56
2022/02/09 12:27:27;;;;;;;3.60;1.30;;;17.50;66.20;;;;;;10421606;28;20053;-56
2022/02/09 12:32:29;;;;;;;3.13;1.15;;;17.60;66.20;;;;;;10412487;28;20061;-55
2022/02/09 12:37:36;;;;;;;3.35;1.10;;;17.70;66.00;;;;;;10396422;28;20068;-56
2022/02/09 12:42:44;;;;;;;1.75;1.05;;;17.70;65.80;;;;;;10412013;28;20429;-56
2022/02/09 12:47:50;;;;;;;3.40;1.10;;;17.70;65.80;;;;;;10413665;28;20080;-54
2022/02/09 12:52:52;;;;;;;4.13;1.63;;;17.70;65.90;;;;;;10413396;28;20100;-56
2022/02/09 12:58:04;;;;;;;4.90;1.60;;;17.70;66.00;;;;;;10428416;28;20025;-55
2022/02/09 13:03:08;;;;;;;2.95;1.35;;;17.60;66.10;;;;;;10427979;28;20038;-55
2022/02/09 13:08:10;;;;;;;3.10;1.40;;;17.60;66.20;;;;;;10412915;28;20034;-55
2022/02/09 13:13:27;;;;;;;4.43;1.10;;;17.50;66.30;;;;;;10412842;28;20064;-55
2022/02/09 13:18:43;;;;;;;5.07;1.52;;;17.50;66.40;;;;;;10421564;28;20390;-56
2022/02/09 13:24:24;;;;;;;2.30;1.33;;;17.50;66.50;;;;;;10405485;28;20470;-54
2022/02/09 14:54:57;;;;;;;7.95;2.60;;;17.80;64.60;;;;;;10423875;28;20050;-55
2022/02/09 15:05:35;;;;;;;6.32;3.38;;;17.80;63.80;;;;;;10416848;28;19913;-56
2022/02/09 15:10:34;;;;;;;6.05;3.20;;;17.80;63.50;;;;;;10416147;28;20232;-55
2022/02/09 15:15:51;;;;;;;11.00;3.67;;;17.80;63.10;;;;;;10423816;28;20117;-55
2022/02/09 15:21:17;;;;;;;7.43;3.05;;;17.80;63.10;;;;;;10438439;28;20404;-56
2022/02/09 15:26:20;;;;;;;4.63;2.92;;;17.90;63.10;;;;;;10373908;28;20029;-55
2022/02/09 15:31:29;;;;;;;6.97;2.85;;;17.90;63.10;;;;;;10413410;28;20529;-56
2022/02/09 15:36:55;;;;;;;3.83;2.70;;;17.90;63.20;;;;;;10416285;28;20027;-55
2022/02/09 16:24:00;;;;;;;10.67;3.13;;;17.80;64.60;;;;;;10409847;28;20727;-57
2022/02/09 16:35:09;;;;;;;6.57;2.23;;;17.70;64.70;;;;;;10432258;28;20040;-56
2022/02/09 16:45:08;;;;;;;6.87;2.50;;;17.70;64.70;;;;;;10420597;28;20037;-57
2022/02/09 16:50:15;;;;;;;4.50;2.40;;;17.70;64.80;;;;;;10411122;28;20113;-56
2022/02/09 16:55:55;;;;;;;5.78;2.20;;;17.60;65.00;;;;;;10410357;28;20033;-55
2022/02/09 17:21:52;;;;;;;3.33;1.98;;;17.70;64.90;;;;;;10411355;28;20053;-57
2022/02/09 17:26:54;;;;;;;5.47;2.30;;;17.70;65.00;;;;;;10405487;28;20029;-56
2022/02/09 17:38:27;;;;;;;12.65;3.90;;;17.70;66.30;;;;;;10450161;28;20037;-54
2022/02/09 17:53:31;;;;;;;6.33;2.50;;;17.90;69.30;;;;;;10409180;28;20037;-56
2022/02/09 17:58:45;;;;;;;9.63;2.60;;;17.90;69.00;;;;;;10411454;28;20595;-55
2022/02/09 18:03:48;;;;;;;8.82;3.65;;;17.80;69.20;;;;;;10418310;28;20029;-56
2022/02/09 18:29:48;;;;;;;11.60;2.92;;;17.50;69.80;;;;;;10418665;28;20045;-56
2022/02/09 18:46:01;;;;;;;7.63;2.53;;;17.50;70.10;;;;;;10415970;28;20037;-55
2022/02/09 19:06:39;;;;;;;4.38;2.53;;;17.50;70.10;;;;;;10417269;28;20045;-56
2022/02/09 19:17:24;;;;;;;6.93;2.43;;;17.40;70.40;;;;;;10414170;28;20041;-55
2022/02/09 19:48:39;;;;;;;9.30;3.40;;;17.60;71.00;;;;;;10390142;28;20041;-56
2022/02/09 19:58:45;;;;;;;9.15;2.90;;;17.50;71.00;;;;;;10411589;28;20033;-54
2022/02/09 20:03:46;;;;;;;6.60;3.33;;;17.50;71.20;;;;;;10411687;28;20615;-55
2022/02/09 20:08:46;;;;;;;6.05;2.88;;;17.50;71.10;;;;;;10416813;28;20037;-56
2022/02/09 20:13:49;;;;;;;6.32;2.88;;;17.50;71.40;;;;;;10414411;28;20455;-56
2022/02/09 20:18:54;;;;;;;5.63;2.95;;;17.50;71.20;;;;;;10413462;28;20033;-55
2022/02/09 20:23:55;;;;;;;8.63;2.83;;;17.50;71.20;;;;;;10410784;28;20040;-55
2022/02/09 20:29:04;;;;;;;6.35;3.83;;;17.50;71.00;;;;;;10410119;28;20072;-55
2022/02/09 20:34:15;;;;;;;6.90;2.70;;;17.50;71.00;;;;;;10444672;28;20044;-56
2022/02/09 20:39:21;;;;;;;5.50;2.65;;;17.40;70.80;;;;;;10414910;28;20672;-56
2022/02/09 20:44:34;;;;;;;6.93;2.78;;;17.50;70.80;;;;;;10413888;28;20381;-56
2022/02/09 20:49:35;;;;;;;4.88;2.92;;;17.50;70.70;;;;;;10412310;28;20033;-56
2022/02/09 20:54:36;;;;;;;4.55;2.58;;;17.50;70.70;;;;;;10413144;28;20022;-55
2022/02/09 20:59:42;;;;;;;4.57;2.33;;;17.50;70.50;;;;;;10410643;28;20128;-56
2022/02/09 21:04:43;;;;;;;3.90;2.38;;;17.50;70.40;;;;;;10412150;28;20025;-55
2022/02/09 21:10:03;;;;;;;2.33;1.77;;;17.50;70.40;;;;;;10411145;28;20028;-55
2022/02/09 21:15:33;;;;;;;4.70;2.22;;;17.50;70.20;;;;;;10411278;28;20018;-55
2022/02/09 21:26:02;;;;;;;6.53;2.50;;;17.60;70.10;;;;;;10413254;28;20038;-54
2022/02/09 21:42:33;;;;;;;2.85;1.80;;;17.60;70.00;;;;;;10458553;28;20041;-56
2022/02/09 21:57:32;;;;;;;;;;;17.60;69.90;;;;;;10413325;28;20042;-55
2022/02/09 22:29:10;;;;;;;3.28;2.00;;;17.60;69.50;;;;;;10378059;28;20081;-55
2022/02/09 22:50:24;;;;;;;3.73;1.90;;;17.50;69.40;;;;;;10415499;28;20049;-56
2022/02/09 22:55:27;;;;;;;4.78;2.20;;;17.50;69.30;;;;;;10417568;28;20389;-55
